Fairview, Oregon
Current Conditions -  °F | °C
As of 12:53 AM on Friday 19 Dec 2014 (Local Time) from KTTD Reporting Station
Light Rain Light Rain  
Wind Chill: 44°   Ceiling: 5500
Heat Index: 46°   Visibility: 10mi
Dew Point: 43°   Wind: 5mph
Humidity: 89%   Direction: 70°ENE
Pressure: 29.87"   Gusts: NA
Location:  45.54°N, 122.43°W
Report Text: KTTD 190853Z AUTO 07004KT 10SM -RA OVC055 08/06 A2987 RMK AO2 SLP115 P0004 60020 T00780061 50024
Loading
Personal Weather Stations






























Interactive Weather Map New forecast layout! Learn more

10-Day Weather Forecast

Advertisements
Track Severe Weather on mobile